Hobart, Oklahoma
Current Conditions -  °F | °C
As of 8:24 AM on Friday 19 Dec 2014 (Local Time) from KHBR Reporting Station
Haze Haze  
Wind Chill: 31°   Ceiling: 300
Heat Index: 38°   Visibility: 2mi
Dew Point: 37°   Wind: 9mph
Humidity: 97%   Direction: 70°ENE
Pressure: 30.23"   Gusts: NA
Location:  35.03°N, 99.09°W
Report Text: KHBR 191424Z AUTO 07008KT 2SM BR OVC003 03/03 A3023 RMK AO2 T00330028
Loading
Personal Weather Stations






























Interactive Weather Map New forecast layout! Learn more

10-Day Weather Forecast

Advertisements
Track Severe Weather on mobile